sensor_id;sensor_type;location;lat;lon;timestamp;pressure;altitude;pressure_sealevel;temperature;humidity
7178;BME280;3630;42.146;24.756;2023-02-16T00:01:00;100866.41;;;5.00;66.15
7178;BME280;3630;42.146;24.756;2023-02-16T00:03:27;100860.28;;;4.97;65.90
7178;BME280;3630;42.146;24.756;2023-02-16T00:05:54;100868.06;;;4.85;66.58
7178;BME280;3630;42.146;24.756;2023-02-16T00:08:22;100871.09;;;4.80;67.17
7178;BME280;3630;42.146;24.756;2023-02-16T00:10:49;100855.38;;;4.72;67.19
7178;BME280;3630;42.146;24.756;2023-02-16T00:13:34;100863.28;;;4.76;67.31
7178;BME280;3630;42.146;24.756;2023-02-16T00:16:12;100871.81;;;4.77;67.11
7178;BME280;3630;42.146;24.756;2023-02-16T00:18:40;100870.84;;;4.75;67.89
7178;BME280;3630;42.146;24.756;2023-02-16T00:21:06;100864.56;;;4.70;67.47
7178;BME280;3630;42.146;24.756;2023-02-16T00:23:35;100869.56;;;4.68;68.22
7178;BME280;3630;42.146;24.756;2023-02-16T00:26:02;100863.81;;;4.58;67.81
7178;BME280;3630;42.146;24.756;2023-02-16T00:28:28;100865.88;;;4.63;67.61
7178;BME280;3630;42.146;24.756;2023-02-16T00:30:55;100853.84;;;4.61;68.28
7178;BME280;3630;42.146;24.756;2023-02-16T00:33:22;100852.56;;;4.54;68.13
7178;BME280;3630;42.146;24.756;2023-02-16T00:35:49;100856.19;;;4.58;67.81
7178;BME280;3630;42.146;24.756;2023-02-16T00:38:16;100855.09;;;4.54;68.81
7178;BME280;3630;42.146;24.756;2023-02-16T00:40:44;100860.81;;;4.50;67.94
7178;BME280;3630;42.146;24.756;2023-02-16T00:43:22;100862.47;;;4.50;68.73
7178;BME280;3630;42.146;24.756;2023-02-16T00:45:50;100853.06;;;4.49;69.02
7178;BME280;3630;42.146;24.756;2023-02-16T00:48:17;100854.66;;;4.47;68.42
7178;BME280;3630;42.146;24.756;2023-02-16T00:50:44;100830.13;;;4.21;69.17
7178;BME280;3630;42.146;24.756;2023-02-16T00:53:12;100845.47;;;4.36;68.78
7178;BME280;3630;42.146;24.756;2023-02-16T00:55:40;100827.56;;;4.21;69.47
7178;BME280;3630;42.146;24.756;2023-02-16T00:58:14;100852.03;;;4.32;69.06
7178;BME280;3630;42.146;24.756;2023-02-16T01:00:43;100853.59;;;4.30;68.86
7178;BME280;3630;42.146;24.756;2023-02-16T01:03:15;100842.94;;;4.23;69.22
7178;BME280;3630;42.146;24.756;2023-02-16T01:05:43;100840.00;;;4.16;68.88
7178;BME280;3630;42.146;24.756;2023-02-16T01:08:11;100842.38;;;4.13;68.99
7178;BME280;3630;42.146;24.756;2023-02-16T01:11:07;100854.59;;;4.19;69.96
7178;BME280;3630;42.146;24.756;2023-02-16T01:13:40;100858.91;;;4.20;69.14
7178;BME280;3630;42.146;24.756;2023-02-16T01:16:12;100848.50;;;4.04;69.05
7178;BME280;3630;42.146;24.756;2023-02-16T01:18:39;100855.66;;;3.96;69.51
7178;BME280;3630;42.146;24.756;2023-02-16T01:21:05;100858.41;;;3.86;70.26
7178;BME280;3630;42.146;24.756;2023-02-16T01:23:32;100854.38;;;3.77;70.73
7178;BME280;3630;42.146;24.756;2023-02-16T01:25:59;100850.47;;;3.69;71.33
7178;BME280;3630;42.146;24.756;2023-02-16T01:28:26;100849.69;;;3.70;71.35
7178;BME280;3630;42.146;24.756;2023-02-16T01:30:54;100844.00;;;3.61;72.08
7178;BME280;3630;42.146;24.756;2023-02-16T01:33:22;100847.63;;;3.51;71.97
7178;BME280;3630;42.146;24.756;2023-02-16T01:35:49;100842.13;;;3.45;72.61
7178;BME280;3630;42.146;24.756;2023-02-16T01:38:19;100852.47;;;3.35;73.13
7178;BME280;3630;42.146;24.756;2023-02-16T01:40:53;100846.00;;;3.27;73.00
7178;BME280;3630;42.146;24.756;2023-02-16T01:43:23;100844.44;;;3.29;73.02
7178;BME280;3630;42.146;24.756;2023-02-16T01:46:00;100846.78;;;3.26;73.73
7178;BME280;3630;42.146;24.756;2023-02-16T01:48:30;100845.69;;;3.22;73.86
7178;BME280;3630;42.146;24.756;2023-02-16T01:51:02;100814.31;;;3.09;73.66
7178;BME280;3630;42.146;24.756;2023-02-16T01:53:32;100844.03;;;3.23;73.18
7178;BME280;3630;42.146;24.756;2023-02-16T01:56:03;100842.25;;;3.22;73.43
7178;BME280;3630;42.146;24.756;2023-02-16T01:58:36;100840.03;;;3.26;73.38
7178;BME280;3630;42.146;24.756;2023-02-16T02:01:43;100837.50;;;3.26;73.91
7178;BME280;3630;42.146;24.756;2023-02-16T02:04:20;100748.72;;;2.77;73.46
7178;BME280;3630;42.146;24.756;2023-02-16T02:07:06;100843.09;;;3.34;73.33
7178;BME280;3630;42.146;24.756;2023-02-16T02:09:41;100840.84;;;3.38;73.35
7178;BME280;3630;42.146;24.756;2023-02-16T02:12:17;100838.34;;;3.51;72.90
7178;BME280;3630;42.146;24.756;2023-02-16T02:14:46;100843.50;;;3.53;72.83
7178;BME280;3630;42.146;24.756;2023-02-16T02:17:17;100834.31;;;3.55;72.37
7178;BME280;3630;42.146;24.756;2023-02-16T02:19:52;100838.03;;;3.60;72.46
7178;BME280;3630;42.146;24.756;2023-02-16T02:23:01;100840.59;;;3.60;72.43
7178;BME280;3630;42.146;24.756;2023-02-16T02:29:30;100838.53;;;3.54;72.50
7178;BME280;3630;42.146;24.756;2023-02-16T02:32:09;100842.75;;;3.54;72.72
7178;BME280;3630;42.146;24.756;2023-02-16T02:34:49;100846.81;;;3.52;72.36
7178;BME280;3630;42.146;24.756;2023-02-16T02:37:27;100835.00;;;3.52;72.94
7178;BME280;3630;42.146;24.756;2023-02-16T02:40:01;100847.41;;;3.48;72.81
7178;BME280;3630;42.146;24.756;2023-02-16T02:42:34;100840.63;;;3.35;72.96
7178;BME280;3630;42.146;24.756;2023-02-16T02:45:08;100836.84;;;3.29;73.62
7178;BME280;3630;42.146;24.756;2023-02-16T02:47:38;100847.06;;;3.30;73.63
7178;BME280;3630;42.146;24.756;2023-02-16T02:50:33;100846.88;;;3.27;73.88
7178;BME280;3630;42.146;24.756;2023-02-16T02:53:05;100853.03;;;3.31;73.44
7178;BME280;3630;42.146;24.756;2023-02-16T02:55:34;100852.06;;;3.29;73.70
7178;BME280;3630;42.146;24.756;2023-02-16T02:58:20;100852.84;;;3.28;73.99
7178;BME280;3630;42.146;24.756;2023-02-16T03:01:09;100865.25;;;3.23;73.85
7178;BME280;3630;42.146;24.756;2023-02-16T03:03:40;100848.81;;;3.18;74.04
7178;BME280;3630;42.146;24.756;2023-02-16T03:06:12;100858.81;;;3.28;74.04
7178;BME280;3630;42.146;24.756;2023-02-16T03:08:42;100862.78;;;3.25;74.26
7178;BME280;3630;42.146;24.756;2023-02-16T03:11:12;100667.63;;;2.16;74.19
7178;BME280;3630;42.146;24.756;2023-02-16T03:14:01;100856.66;;;3.21;74.22
7178;BME280;3630;42.146;24.756;2023-02-16T03:16:34;100827.97;;;3.11;73.93
7178;BME280;3630;42.146;24.756;2023-02-16T03:19:04;100857.22;;;3.30;74.15
7178;BME280;3630;42.146;24.756;2023-02-16T03:21:50;100851.75;;;3.24;74.47
7178;BME280;3630;42.146;24.756;2023-02-16T03:24:34;100852.03;;;3.16;74.04
7178;BME280;3630;42.146;24.756;2023-02-16T03:27:21;100853.31;;;3.22;73.55
7178;BME280;3630;42.146;24.756;2023-02-16T03:30:09;100860.28;;;3.13;74.10
7178;BME280;3630;42.146;24.756;2023-02-16T03:32:37;100856.09;;;3.14;74.12
7178;BME280;3630;42.146;24.756;2023-02-16T03:35:05;100855.84;;;3.22;74.20
7178;BME280;3630;42.146;24.756;2023-02-16T03:37:33;100853.44;;;3.24;73.43
7178;BME280;3630;42.146;24.756;2023-02-16T03:40:00;100846.88;;;3.27;73.37
7178;BME280;3630;42.146;24.756;2023-02-16T03:42:48;100850.28;;;3.28;73.42
7178;BME280;3630;42.146;24.756;2023-02-16T03:45:15;100839.44;;;3.17;73.65
7178;BME280;3630;42.146;24.756;2023-02-16T03:47:43;100843.81;;;3.20;73.45
7178;BME280;3630;42.146;24.756;2023-02-16T03:50:10;100840.78;;;3.12;73.39
7178;BME280;3630;42.146;24.756;2023-02-16T03:52:37;100848.69;;;3.17;73.60
7178;BME280;3630;42.146;24.756;2023-02-16T03:55:05;100846.38;;;3.20;73.65
7178;BME280;3630;42.146;24.756;2023-02-16T03:57:31;100835.03;;;3.15;73.21
7178;BME280;3630;42.146;24.756;2023-02-16T03:59:58;100830.69;;;3.01;73.72
7178;BME280;3630;42.146;24.756;2023-02-16T04:02:26;100844.56;;;3.06;73.90
7178;BME280;3630;42.146;24.756;2023-02-16T04:04:55;100839.06;;;2.99;74.11
7178;BME280;3630;42.146;24.756;2023-02-16T04:07:22;100817.94;;;2.87;74.29
7178;BME280;3630;42.146;24.756;2023-02-16T04:09:49;100841.72;;;3.01;74.02
7178;BME280;3630;42.146;24.756;2023-02-16T04:12:16;100838.97;;;2.98;74.23
7178;BME280;3630;42.146;24.756;2023-02-16T04:15:00;100833.25;;;2.89;74.67
7178;BME280;3630;42.146;24.756;2023-02-16T04:17:26;100839.13;;;2.88;74.74
7178;BME280;3630;42.146;24.756;2023-02-16T04:19:55;100831.63;;;2.89;74.45
7178;BME280;3630;42.146;24.756;2023-02-16T04:22:21;100824.75;;;2.88;74.57
7178;BME280;3630;42.146;24.756;2023-02-16T04:24:48;100845.69;;;2.97;74.52
7178;BME280;3630;42.146;24.756;2023-02-16T04:27:15;100838.69;;;2.93;74.21
7178;BME280;3630;42.146;24.756;2023-02-16T04:29:42;100832.59;;;2.91;74.45
7178;BME280;3630;42.146;24.756;2023-02-16T04:32:09;100841.97;;;2.92;74.40
7178;BME280;3630;42.146;24.756;2023-02-16T04:34:35;100824.69;;;2.87;74.57
7178;BME280;3630;42.146;24.756;2023-02-16T04:37:04;100818.88;;;2.76;74.13
7178;BME280;3630;42.146;24.756;2023-02-16T04:39:31;100841.97;;;2.92;74.47
7178;BME280;3630;42.146;24.756;2023-02-16T04:41:58;100841.22;;;2.93;74.02
7178;BME280;3630;42.146;24.756;2023-02-16T04:44:24;100845.19;;;2.90;74.48
7178;BME280;3630;42.146;24.756;2023-02-16T04:46:51;100848.81;;;2.93;74.34
7178;BME280;3630;42.146;24.756;2023-02-16T04:49:18;100852.81;;;2.90;74.51
7178;BME280;3630;42.146;24.756;2023-02-16T04:51:45;100851.25;;;2.92;74.41
7178;BME280;3630;42.146;24.756;2023-02-16T04:54:13;100828.28;;;2.77;74.44
7178;BME280;3630;42.146;24.756;2023-02-16T04:56:42;100854.75;;;2.94;74.61
7178;BME280;3630;42.146;24.756;2023-02-16T04:59:09;100854.75;;;2.94;74.60
7178;BME280;3630;42.146;24.756;2023-02-16T05:01:36;100864.16;;;2.95;74.23
7178;BME280;3630;42.146;24.756;2023-02-16T05:04:03;100866.22;;;3.01;74.63
7178;BME280;3630;42.146;24.756;2023-02-16T05:06:30;100873.31;;;2.93;74.25
7178;BME280;3630;42.146;24.756;2023-02-16T05:08:57;100867.34;;;2.92;74.88
7178;BME280;3630;42.146;24.756;2023-02-16T05:11:25;100872.22;;;2.89;74.40
7178;BME280;3630;42.146;24.756;2023-02-16T05:14:17;100870.56;;;2.90;74.65
7178;BME280;3630;42.146;24.756;2023-02-16T05:17:03;100875.06;;;2.94;74.88
7178;BME280;3630;42.146;24.756;2023-02-16T05:19:33;100879.16;;;2.92;74.96
7178;BME280;3630;42.146;24.756;2023-02-16T05:25:10;100860.41;;;2.90;75.04
7178;BME280;3630;42.146;24.756;2023-02-16T05:27:39;100880.47;;;2.98;74.79
7178;BME280;3630;42.146;24.756;2023-02-16T05:30:06;100877.25;;;3.01;74.89
7178;BME280;3630;42.146;24.756;2023-02-16T05:32:33;100880.56;;;3.00;74.61
7178;BME280;3630;42.146;24.756;2023-02-16T05:35:00;100880.69;;;3.02;74.65
7178;BME280;3630;42.146;24.756;2023-02-16T05:37:26;100887.63;;;3.04;74.19
7178;BME280;3630;42.146;24.756;2023-02-16T05:39:53;100884.75;;;2.99;74.25
7178;BME280;3630;42.146;24.756;2023-02-16T05:42:20;100883.91;;;2.99;74.30
7178;BME280;3630;42.146;24.756;2023-02-16T05:44:48;100885.22;;;2.94;74.57
7178;BME280;3630;42.146;24.756;2023-02-16T05:47:20;100901.75;;;3.01;74.93
7178;BME280;3630;42.146;24.756;2023-02-16T05:49:47;100900.31;;;3.04;74.11
7178;BME280;3630;42.146;24.756;2023-02-16T05:52:13;100892.59;;;3.03;74.26
7178;BME280;3630;42.146;24.756;2023-02-16T05:54:40;100901.81;;;3.14;73.81
7178;BME280;3630;42.146;24.756;2023-02-16T05:57:08;100894.81;;;3.23;73.47
7178;BME280;3630;42.146;24.756;2023-02-16T05:59:35;100903.84;;;3.31;73.09
7178;BME280;3630;42.146;24.756;2023-02-16T06:02:03;100898.09;;;3.33;72.89
7178;BME280;3630;42.146;24.756;2023-02-16T06:04:30;100904.94;;;3.34;72.73
7178;BME280;3630;42.146;24.756;2023-02-16T06:06:57;100896.72;;;3.38;72.85
7178;BME280;3630;42.146;24.756;2023-02-16T06:09:24;100904.56;;;3.41;72.36
7178;BME280;3630;42.146;24.756;2023-02-16T06:11:51;100903.88;;;3.44;72.71
7178;BME280;3630;42.146;24.756;2023-02-16T06:14:19;100892.75;;;3.42;72.14
7178;BME280;3630;42.146;24.756;2023-02-16T06:16:48;100910.00;;;3.59;71.29
7178;BME280;3630;42.146;24.756;2023-02-16T06:19:18;100912.94;;;3.65;71.02
7178;BME280;3630;42.146;24.756;2023-02-16T06:21:45;100916.66;;;3.70;71.02
7178;BME280;3630;42.146;24.756;2023-02-16T06:24:12;100864.22;;;3.46;70.85
7178;BME280;3630;42.146;24.756;2023-02-16T06:26:40;100915.50;;;3.78;70.57
7178;BME280;3630;42.146;24.756;2023-02-16T06:29:08;100920.78;;;3.81;70.85
7178;BME280;3630;42.146;24.756;2023-02-16T06:31:35;100916.00;;;3.86;70.78
7178;BME280;3630;42.146;24.756;2023-02-16T06:34:02;100927.94;;;3.87;70.92
7178;BME280;3630;42.146;24.756;2023-02-16T06:36:31;100923.34;;;3.94;70.89
7178;BME280;3630;42.146;24.756;2023-02-16T06:38:58;100929.00;;;3.90;71.06
7178;BME280;3630;42.146;24.756;2023-02-16T06:41:25;100922.56;;;3.95;70.30
7178;BME280;3630;42.146;24.756;2023-02-16T06:44:01;100925.13;;;3.95;70.97
7178;BME280;3630;42.146;24.756;2023-02-16T06:46:29;100926.66;;;3.93;70.76
7178;BME280;3630;42.146;24.756;2023-02-16T06:48:56;100925.41;;;4.00;70.53
7178;BME280;3630;42.146;24.756;2023-02-16T06:51:23;100927.47;;;4.05;70.17
7178;BME280;3630;42.146;24.756;2023-02-16T06:53:51;100930.59;;;4.14;70.66
7178;BME280;3630;42.146;24.756;2023-02-16T06:56:18;100927.66;;;4.22;69.74
7178;BME280;3630;42.146;24.756;2023-02-16T06:58:45;100930.69;;;4.29;68.89
7178;BME280;3630;42.146;24.756;2023-02-16T07:01:11;100930.81;;;4.31;69.34
7178;BME280;3630;42.146;24.756;2023-02-16T07:03:39;100822.44;;;3.67;69.27
7178;BME280;3630;42.146;24.756;2023-02-16T07:06:06;100939.41;;;4.46;68.78
7178;BME280;3630;42.146;24.756;2023-02-16T07:08:33;100932.84;;;4.49;67.64
7178;BME280;3630;42.146;24.756;2023-02-16T07:11:02;100940.56;;;4.51;68.10
7178;BME280;3630;42.146;24.756;2023-02-16T07:13:29;100943.31;;;4.54;67.65
7178;BME280;3630;42.146;24.756;2023-02-16T07:15:56;100936.06;;;4.60;68.05
7178;BME280;3630;42.146;24.756;2023-02-16T07:18:22;100934.88;;;4.68;67.41
7178;BME280;3630;42.146;24.756;2023-02-16T07:20:49;100935.34;;;4.75;67.08
7178;BME280;3630;42.146;24.756;2023-02-16T07:23:16;100939.34;;;4.85;67.37
7178;BME280;3630;42.146;24.756;2023-02-16T07:25:43;100941.31;;;4.76;67.14
7178;BME280;3630;42.146;24.756;2023-02-16T07:28:12;100910.31;;;4.68;66.92
7178;BME280;3630;42.146;24.756;2023-02-16T07:30:38;100940.78;;;4.95;66.59
7178;BME280;3630;42.146;24.756;2023-02-16T07:33:05;100878.47;;;4.62;66.08
7178;BME280;3630;42.146;24.756;2023-02-16T07:35:32;100933.25;;;4.96;66.12
7178;BME280;3630;42.146;24.756;2023-02-16T07:37:59;100936.50;;;4.94;65.50
7178;BME280;3630;42.146;24.756;2023-02-16T07:40:26;100934.13;;;4.84;65.92
7178;BME280;3630;42.146;24.756;2023-02-16T07:42:53;100934.63;;;4.91;65.90
7178;BME280;3630;42.146;24.756;2023-02-16T07:45:21;100934.25;;;4.85;64.68
7178;BME280;3630;42.146;24.756;2023-02-16T07:47:48;100934.53;;;4.90;65.59
7178;BME280;3630;42.146;24.756;2023-02-16T07:50:15;100936.63;;;5.10;65.21
7178;BME280;3630;42.146;24.756;2023-02-16T07:52:42;100925.31;;;5.19;64.90
7178;BME280;3630;42.146;24.756;2023-02-16T07:55:09;100936.72;;;5.39;64.44
7178;BME280;3630;42.146;24.756;2023-02-16T07:57:37;100938.41;;;5.53;63.45
7178;BME280;3630;42.146;24.756;2023-02-16T08:00:05;100934.13;;;5.67;62.07
7178;BME280;3630;42.146;24.756;2023-02-16T08:02:34;100943.19;;;5.76;60.91
7178;BME280;3630;42.146;24.756;2023-02-16T08:05:01;100933.25;;;5.81;59.96
7178;BME280;3630;42.146;24.756;2023-02-16T08:07:28;100937.06;;;6.02;60.04
7178;BME280;3630;42.146;24.756;2023-02-16T08:09:54;100925.44;;;6.07;58.67
7178;BME280;3630;42.146;24.756;2023-02-16T08:12:21;100942.94;;;6.16;58.55
7178;BME280;3630;42.146;24.756;2023-02-16T08:14:49;100941.38;;;6.18;58.64
7178;BME280;3630;42.146;24.756;2023-02-16T08:17:15;100943.94;;;6.18;58.17
7178;BME280;3630;42.146;24.756;2023-02-16T08:19:44;100943.81;;;6.31;58.63
7178;BME280;3630;42.146;24.756;2023-02-16T08:22:10;100944.88;;;6.34;57.35
7178;BME280;3630;42.146;24.756;2023-02-16T08:24:37;100936.75;;;6.41;56.66
7178;BME280;3630;42.146;24.756;2023-02-16T08:27:04;100943.09;;;6.48;56.71
7178;BME280;3630;42.146;24.756;2023-02-16T08:29:32;100942.25;;;6.64;55.76
7178;BME280;3630;42.146;24.756;2023-02-16T08:31:59;100937.34;;;6.52;54.78
7178;BME280;3630;42.146;24.756;2023-02-16T08:34:26;100937.75;;;6.60;56.00
7178;BME280;3630;42.146;24.756;2023-02-16T08:36:56;100929.28;;;6.75;54.72
7178;BME280;3630;42.146;24.756;2023-02-16T08:39:25;100935.59;;;6.82;55.10
7178;BME280;3630;42.146;24.756;2023-02-16T08:41:53;100939.69;;;6.94;54.46
7178;BME280;3630;42.146;24.756;2023-02-16T08:44:22;100917.88;;;7.01;54.20
7178;BME280;3630;42.146;24.756;2023-02-16T08:46:50;100932.44;;;7.18;54.17
7178;BME280;3630;42.146;24.756;2023-02-16T08:49:19;100928.78;;;7.29;53.72
7178;BME280;3630;42.146;24.756;2023-02-16T08:51:48;100929.56;;;7.28;52.95
7178;BME280;3630;42.146;24.756;2023-02-16T08:54:19;100920.53;;;7.35;52.97
7178;BME280;3630;42.146;24.756;2023-02-16T08:56:47;100915.81;;;7.42;52.91
7178;BME280;3630;42.146;24.756;2023-02-16T08:59:14;100921.63;;;7.56;52.29
7178;BME280;3630;42.146;24.756;2023-02-16T09:01:42;100913.69;;;7.67;52.62
7178;BME280;3630;42.146;24.756;2023-02-16T09:04:09;100916.56;;;7.73;51.63
7178;BME280;3630;42.146;24.756;2023-02-16T09:06:38;100915.13;;;7.79;51.83
7178;BME280;3630;42.146;24.756;2023-02-16T09:09:06;100917.03;;;7.83;51.71
7178;BME280;3630;42.146;24.756;2023-02-16T09:11:36;100914.91;;;7.92;51.47
7178;BME280;3630;42.146;24.756;2023-02-16T09:14:03;100911.72;;;7.96;51.77
7178;BME280;3630;42.146;24.756;2023-02-16T09:16:31;100913.03;;;8.05;51.41
7178;BME280;3630;42.146;24.756;2023-02-16T09:19:01;100903.88;;;8.10;50.96
7178;BME280;3630;42.146;24.756;2023-02-16T09:21:29;100899.81;;;8.14;50.85
7178;BME280;3630;42.146;24.756;2023-02-16T09:23:59;100905.78;;;8.30;51.15
7178;BME280;3630;42.146;24.756;2023-02-16T09:26:29;100894.94;;;8.36;50.49
7178;BME280;3630;42.146;24.756;2023-02-16T09:28:58;100898.09;;;8.48;50.23
7178;BME280;3630;42.146;24.756;2023-02-16T09:31:28;100903.75;;;8.60;49.68
7178;BME280;3630;42.146;24.756;2023-02-16T09:33:58;100900.56;;;8.64;49.48
7178;BME280;3630;42.146;24.756;2023-02-16T09:36:26;100900.97;;;8.73;49.69
7178;BME280;3630;42.146;24.756;2023-02-16T09:38:54;100892.81;;;8.82;49.28
7178;BME280;3630;42.146;24.756;2023-02-16T09:41:27;100890.63;;;8.89;49.16
7178;BME280;3630;42.146;24.756;2023-02-16T09:44:00;100883.59;;;9.05;48.85
7178;BME280;3630;42.146;24.756;2023-02-16T09:46:30;100879.69;;;9.13;48.32
7178;BME280;3630;42.146;24.756;2023-02-16T09:49:00;100887.84;;;9.23;48.39
7178;BME280;3630;42.146;24.756;2023-02-16T09:51:33;100883.13;;;9.32;47.56
7178;BME280;3630;42.146;24.756;2023-02-16T09:54:12;100877.72;;;9.26;47.85
7178;BME280;3630;42.146;24.756;2023-02-16T09:56:48;100880.38;;;9.28;47.67
7178;BME280;3630;42.146;24.756;2023-02-16T09:59:27;100872.84;;;9.32;48.02
7178;BME280;3630;42.146;24.756;2023-02-16T10:02:03;100871.31;;;9.36;47.59
7178;BME280;3630;42.146;24.756;2023-02-16T10:04:45;100859.16;;;9.32;47.37
7178;BME280;3630;42.146;24.756;2023-02-16T10:07:23;100858.66;;;9.40;47.17
7178;BME280;3630;42.146;24.756;2023-02-16T10:09:56;100862.13;;;9.41;47.52
7178;BME280;3630;42.146;24.756;2023-02-16T10:12:28;100858.63;;;9.39;46.98
7178;BME280;3630;42.146;24.756;2023-02-16T10:15:02;100854.25;;;9.36;47.08
7178;BME280;3630;42.146;24.756;2023-02-16T10:17:39;100846.47;;;9.35;47.30
7178;BME280;3630;42.146;24.756;2023-02-16T10:20:11;100850.44;;;9.47;47.10
7178;BME280;3630;42.146;24.756;2023-02-16T10:22:41;100855.31;;;9.62;46.68
7178;BME280;3630;42.146;24.756;2023-02-16T10:25:14;100839.56;;;9.74;46.40
7178;BME280;3630;42.146;24.756;2023-02-16T10:27:44;100839.06;;;9.82;45.90
7178;BME280;3630;42.146;24.756;2023-02-16T10:30:16;100842.19;;;9.96;46.24
7178;BME280;3630;42.146;24.756;2023-02-16T10:32:54;100843.81;;;9.94;45.67
7178;BME280;3630;42.146;24.756;2023-02-16T10:35:28;100828.16;;;9.88;45.67
7178;BME280;3630;42.146;24.756;2023-02-16T10:38:03;100834.59;;;9.99;45.54
7178;BME280;3630;42.146;24.756;2023-02-16T10:40:39;100828.72;;;10.01;45.72
7178;BME280;3630;42.146;24.756;2023-02-16T10:43:13;100830.41;;;10.01;45.46
7178;BME280;3630;42.146;24.756;2023-02-16T10:45:48;100825.84;;;10.15;45.57
7178;BME280;3630;42.146;24.756;2023-02-16T10:48:16;100817.72;;;10.05;45.32
7178;BME280;3630;42.146;24.756;2023-02-16T10:50:51;100817.97;;;10.12;44.68
7178;BME280;3630;42.146;24.756;2023-02-16T10:53:33;100805.25;;;10.13;44.88
7178;BME280;3630;42.146;24.756;2023-02-16T10:56:01;100806.53;;;10.24;44.48
7178;BME280;3630;42.146;24.756;2023-02-16T10:58:35;100802.03;;;10.19;44.62
7178;BME280;3630;42.146;24.756;2023-02-16T11:01:10;100796.53;;;10.11;44.36
7178;BME280;3630;42.146;24.756;2023-02-16T11:03:45;100805.25;;;10.13;44.34
7178;BME280;3630;42.146;24.756;2023-02-16T11:06:14;100798.13;;;10.07;45.07
7178;BME280;3630;42.146;24.756;2023-02-16T11:08:46;100786.44;;;10.14;44.42
7178;BME280;3630;42.146;24.756;2023-02-16T11:11:15;100787.78;;;10.27;44.24
7178;BME280;3630;42.146;24.756;2023-02-16T11:13:46;100748.91;;;10.18;44.30
7178;BME280;3630;42.146;24.756;2023-02-16T11:16:20;100782.56;;;10.47;43.79
7178;BME280;3630;42.146;24.756;2023-02-16T11:18:54;100769.06;;;10.53;43.42
7178;BME280;3630;42.146;24.756;2023-02-16T11:21:41;100772.03;;;10.63;43.24
7178;BME280;3630;42.146;24.756;2023-02-16T11:24:12;100769.03;;;10.75;43.11
7178;BME280;3630;42.146;24.756;2023-02-16T11:26:39;100764.63;;;10.71;42.45
7178;BME280;3630;42.146;24.756;2023-02-16T11:29:17;100763.28;;;10.58;42.98
7178;BME280;3630;42.146;24.756;2023-02-16T11:31:46;100761.19;;;10.72;42.50
7178;BME280;3630;42.146;24.756;2023-02-16T11:34:22;100670.28;;;10.21;42.36
7178;BME280;3630;42.146;24.756;2023-02-16T11:37:00;100735.38;;;10.69;42.65
7178;BME280;3630;42.146;24.756;2023-02-16T11:39:33;100751.78;;;10.96;42.45
7178;BME280;3630;42.146;24.756;2023-02-16T11:42:03;100740.94;;;11.05;41.93
7178;BME280;3630;42.146;24.756;2023-02-16T11:44:33;100741.34;;;11.17;42.15
7178;BME280;3630;42.146;24.756;2023-02-16T11:47:06;100727.09;;;11.26;41.59
7178;BME280;3630;42.146;24.756;2023-02-16T11:49:37;100736.88;;;11.37;40.82
7178;BME280;3630;42.146;24.756;2023-02-16T11:52:20;100726.88;;;11.46;40.49
7178;BME280;3630;42.146;24.756;2023-02-16T11:54:52;100732.41;;;11.58;39.87
7178;BME280;3630;42.146;24.756;2023-02-16T11:57:24;100714.38;;;11.56;40.11
7178;BME280;3630;42.146;24.756;2023-02-16T11:59:51;100716.38;;;11.66;39.73
7178;BME280;3630;42.146;24.756;2023-02-16T12:02:46;100708.94;;;11.74;40.08
7178;BME280;3630;42.146;24.756;2023-02-16T12:05:24;100680.94;;;11.58;39.75
7178;BME280;3630;42.146;24.756;2023-02-16T12:08:15;100703.00;;;11.76;39.64
7178;BME280;3630;42.146;24.756;2023-02-16T12:11:00;100674.00;;;11.55;40.30
7178;BME280;3630;42.146;24.756;2023-02-16T12:13:36;100700.66;;;11.84;40.50
7178;BME280;3630;42.146;24.756;2023-02-16T12:16:18;100689.50;;;11.83;39.93
7178;BME280;3630;42.146;24.756;2023-02-16T12:18:59;100688.25;;;11.99;39.87
7178;BME280;3630;42.146;24.756;2023-02-16T12:21:34;100692.53;;;11.99;39.71
7178;BME280;3630;42.146;24.756;2023-02-16T12:24:11;100682.31;;;12.02;39.97
7178;BME280;3630;42.146;24.756;2023-02-16T12:26:46;100662.97;;;11.86;40.01
7178;BME280;3630;42.146;24.756;2023-02-16T12:29:32;100678.91;;;12.03;40.04
7178;BME280;3630;42.146;24.756;2023-02-16T12:32:19;100668.53;;;12.01;39.56
7178;BME280;3630;42.146;24.756;2023-02-16T12:35:05;100666.72;;;11.97;39.40
7178;BME280;3630;42.146;24.756;2023-02-16T12:37:39;100664.28;;;12.02;39.25
7178;BME280;3630;42.146;24.756;2023-02-16T12:40:18;100661.59;;;11.99;39.29
7178;BME280;3630;42.146;24.756;2023-02-16T12:43:00;100660.72;;;11.98;39.52
7178;BME280;3630;42.146;24.756;2023-02-16T12:45:32;100656.19;;;11.90;39.42
7178;BME280;3630;42.146;24.756;2023-02-16T12:48:10;100649.13;;;11.82;39.22
7178;BME280;3630;42.146;24.756;2023-02-16T12:50:45;100646.72;;;11.89;39.45
7178;BME280;3630;42.146;24.756;2023-02-16T12:53:18;100651.91;;;11.90;39.53
7178;BME280;3630;42.146;24.756;2023-02-16T12:55:53;100645.25;;;11.97;38.93
7178;BME280;3630;42.146;24.756;2023-02-16T12:58:24;100644.50;;;12.01;39.07
7178;BME280;3630;42.146;24.756;2023-02-16T13:00:57;100638.00;;;12.13;39.19
7178;BME280;3630;42.146;24.756;2023-02-16T13:03:31;100637.22;;;12.16;38.76
7178;BME280;3630;42.146;24.756;2023-02-16T13:06:07;100632.31;;;12.25;38.69
7178;BME280;3630;42.146;24.756;2023-02-16T13:08:42;100622.38;;;12.38;38.45
7178;BME280;3630;42.146;24.756;2023-02-16T13:11:18;100623.38;;;12.43;38.52
7178;BME280;3630;42.146;24.756;2023-02-16T13:13:47;100615.59;;;12.42;38.23
7178;BME280;3630;42.146;24.756;2023-02-16T13:16:17;100616.38;;;12.39;38.35
7178;BME280;3630;42.146;24.756;2023-02-16T13:18:50;100612.22;;;12.44;38.81
7178;BME280;3630;42.146;24.756;2023-02-16T13:21:39;100612.22;;;12.44;38.60
7178;BME280;3630;42.146;24.756;2023-02-16T13:24:14;100614.88;;;12.48;38.31
7178;BME280;3630;42.146;24.756;2023-02-16T13:26:56;100609.81;;;12.51;38.38
7178;BME280;3630;42.146;24.756;2023-02-16T13:29:45;100603.84;;;12.52;38.28
7178;BME280;3630;42.146;24.756;2023-02-16T13:32:46;100596.25;;;12.58;38.06
7178;BME280;3630;42.146;24.756;2023-02-16T13:35:30;100597.09;;;12.57;38.03
7178;BME280;3630;42.146;24.756;2023-02-16T13:38:22;100594.47;;;12.55;37.78